sensor_id;sensor_type;location;lat;lon;timestamp;P1;durP1;ratioP1;P2;durP2;ratioP2
62673;SDS011;62269;47.594;17.638;2022-08-01T00:00:40;7.65;;;6.95;;
62673;SDS011;62269;47.594;17.638;2022-08-01T00:01:27;9.13;;;7.12;;
62673;SDS011;62269;47.594;17.638;2022-08-01T00:02:14;8.05;;;6.40;;
62673;SDS011;62269;47.594;17.638;2022-08-01T00:03:01;8.40;;;6.90;;
62673;SDS011;62269;47.594;17.638;2022-08-01T00:03:47;8.88;;;6.95;;
62673;SDS011;62269;47.594;17.638;2022-08-01T00:04:34;7.32;;;6.62;;
62673;SDS011;62269;47.594;17.638;2022-08-01T00:05:21;7.97;;;7.18;;
62673;SDS011;62269;47.594;17.638;2022-08-01T00:06:08;7.05;;;6.35;;
62673;SDS011;62269;47.594;17.638;2022-08-01T00:06:55;8.98;;;7.53;;
62673;SDS011;62269;47.594;17.638;2022-08-01T00:07:42;7.70;;;7.00;;
62673;SDS011;62269;47.594;17.638;2022-08-01T00:08:29;7.50;;;6.80;;
62673;SDS011;62269;47.594;17.638;2022-08-01T00:09:15;8.43;;;7.07;;
62673;SDS011;62269;47.594;17.638;2022-08-01T00:10:11;7.50;;;6.70;;
62673;SDS011;62269;47.594;17.638;2022-08-01T00:10:59;7.95;;;7.03;;
62673;SDS011;62269;47.594;17.638;2022-08-01T00:11:48;8.13;;;7.32;;
62673;SDS011;62269;47.594;17.638;2022-08-01T00:12:45;8.90;;;7.28;;
62673;SDS011;62269;47.594;17.638;2022-08-01T00:13:32;7.60;;;6.90;;
62673;SDS011;62269;47.594;17.638;2022-08-01T00:14:19;10.63;;;7.75;;
62673;SDS011;62269;47.594;17.638;2022-08-01T00:15:17;10.90;;;6.75;;
62673;SDS011;62269;47.594;17.638;2022-08-01T00:16:04;7.43;;;6.55;;
62673;SDS011;62269;47.594;17.638;2022-08-01T00:16:51;7.50;;;6.80;;
62673;SDS011;62269;47.594;17.638;2022-08-01T00:17:38;8.05;;;7.00;;
62673;SDS011;62269;47.594;17.638;2022-08-01T00:18:25;12.00;;;7.15;;
62673;SDS011;62269;47.594;17.638;2022-08-01T00:19:12;9.10;;;6.87;;
62673;SDS011;62269;47.594;17.638;2022-08-01T00:19:58;7.47;;;6.78;;
62673;SDS011;62269;47.594;17.638;2022-08-01T00:20:45;7.80;;;6.70;;
62673;SDS011;62269;47.594;17.638;2022-08-01T00:21:32;7.82;;;7.10;;
62673;SDS011;62269;47.594;17.638;2022-08-01T00:22:19;7.60;;;6.90;;
62673;SDS011;62269;47.594;17.638;2022-08-01T00:23:06;7.72;;;6.80;;
62673;SDS011;62269;47.594;17.638;2022-08-01T00:23:53;11.00;;;7.47;;
62673;SDS011;62269;47.594;17.638;2022-08-01T00:24:39;9.45;;;7.10;;
62673;SDS011;62269;47.594;17.638;2022-08-01T00:25:26;7.35;;;6.65;;
62673;SDS011;62269;47.594;17.638;2022-08-01T00:26:19;9.40;;;7.25;;
62673;SDS011;62269;47.594;17.638;2022-08-01T00:27:06;7.37;;;6.65;;
62673;SDS011;62269;47.594;17.638;2022-08-01T00:27:53;8.55;;;6.37;;
62673;SDS011;62269;47.594;17.638;2022-08-01T00:28:40;7.37;;;6.68;;
62673;SDS011;62269;47.594;17.638;2022-08-01T00:29:27;7.87;;;7.07;;
62673;SDS011;62269;47.594;17.638;2022-08-01T00:30:34;7.82;;;7.10;;
62673;SDS011;62269;47.594;17.638;2022-08-01T00:31:21;10.20;;;7.35;;
62673;SDS011;62269;47.594;17.638;2022-08-01T00:32:08;8.52;;;7.10;;
62673;SDS011;62269;47.594;17.638;2022-08-01T00:32:55;7.22;;;6.53;;
62673;SDS011;62269;47.594;17.638;2022-08-01T00:33:42;8.52;;;7.65;;
62673;SDS011;62269;47.594;17.638;2022-08-01T00:34:29;7.78;;;7.07;;
62673;SDS011;62269;47.594;17.638;2022-08-01T00:35:15;8.15;;;7.35;;
62673;SDS011;62269;47.594;17.638;2022-08-01T00:36:02;8.05;;;7.25;;
62673;SDS011;62269;47.594;17.638;2022-08-01T00:36:49;8.82;;;7.53;;
62673;SDS011;62269;47.594;17.638;2022-08-01T00:37:36;10.70;;;7.90;;
62673;SDS011;62269;47.594;17.638;2022-08-01T00:38:23;10.32;;;7.82;;
62673;SDS011;62269;47.594;17.638;2022-08-01T00:39:11;9.98;;;7.22;;
62673;SDS011;62269;47.594;17.638;2022-08-01T00:39:58;9.23;;;7.47;;
62673;SDS011;62269;47.594;17.638;2022-08-01T00:40:45;8.32;;;7.55;;
62673;SDS011;62269;47.594;17.638;2022-08-01T00:41:32;7.70;;;7.00;;
62673;SDS011;62269;47.594;17.638;2022-08-01T00:42:19;7.90;;;7.20;;
62673;SDS011;62269;47.594;17.638;2022-08-01T00:43:06;8.25;;;7.45;;
62673;SDS011;62269;47.594;17.638;2022-08-01T00:43:53;8.40;;;7.35;;
62673;SDS011;62269;47.594;17.638;2022-08-01T00:44:41;9.02;;;7.37;;
62673;SDS011;62269;47.594;17.638;2022-08-01T00:45:27;9.82;;;7.85;;
62673;SDS011;62269;47.594;17.638;2022-08-01T00:46:14;8.48;;;7.50;;
62673;SDS011;62269;47.594;17.638;2022-08-01T00:47:01;8.55;;;7.75;;
62673;SDS011;62269;47.594;17.638;2022-08-01T00:47:49;8.68;;;7.78;;
62673;SDS011;62269;47.594;17.638;2022-08-01T00:48:40;9.30;;;7.22;;
62673;SDS011;62269;47.594;17.638;2022-08-01T00:49:27;10.30;;;7.65;;
62673;SDS011;62269;47.594;17.638;2022-08-01T00:50:14;8.05;;;7.28;;
62673;SDS011;62269;47.594;17.638;2022-08-01T00:51:02;8.73;;;7.65;;
62673;SDS011;62269;47.594;17.638;2022-08-01T00:51:50;9.55;;;7.60;;
62673;SDS011;62269;47.594;17.638;2022-08-01T00:52:37;8.10;;;7.32;;
62673;SDS011;62269;47.594;17.638;2022-08-01T00:53:25;7.80;;;7.10;;
62673;SDS011;62269;47.594;17.638;2022-08-01T00:54:33;9.18;;;7.12;;
62673;SDS011;62269;47.594;17.638;2022-08-01T00:55:19;7.82;;;7.03;;
62673;SDS011;62269;47.594;17.638;2022-08-01T00:56:06;8.55;;;7.62;;
62673;SDS011;62269;47.594;17.638;2022-08-01T00:56:54;8.40;;;7.60;;
62673;SDS011;62269;47.594;17.638;2022-08-01T00:57:41;8.00;;;7.28;;
62673;SDS011;62269;47.594;17.638;2022-08-01T00:58:48;7.85;;;6.97;;
62673;SDS011;62269;47.594;17.638;2022-08-01T00:59:35;8.27;;;7.47;;
62673;SDS011;62269;47.594;17.638;2022-08-01T01:00:25;8.02;;;7.22;;
62673;SDS011;62269;47.594;17.638;2022-08-01T01:01:13;9.20;;;7.22;;
62673;SDS011;62269;47.594;17.638;2022-08-01T01:02:00;7.90;;;7.10;;
62673;SDS011;62269;47.594;17.638;2022-08-01T01:02:48;7.85;;;7.12;;
62673;SDS011;62269;47.594;17.638;2022-08-01T01:03:35;9.60;;;7.10;;
62673;SDS011;62269;47.594;17.638;2022-08-01T01:04:42;8.55;;;7.72;;
62673;SDS011;62269;47.594;17.638;2022-08-01T01:05:29;9.38;;;7.15;;
62673;SDS011;62269;47.594;17.638;2022-08-01T01:08:37;9.73;;;7.30;;
62673;SDS011;62269;47.594;17.638;2022-08-01T01:09:33;8.52;;;7.65;;
62673;SDS011;62269;47.594;17.638;2022-08-01T01:11:25;9.07;;;7.47;;
62673;SDS011;62269;47.594;17.638;2022-08-01T01:13:10;9.23;;;7.40;;
62673;SDS011;62269;47.594;17.638;2022-08-01T01:14:04;9.10;;;7.03;;
62673;SDS011;62269;47.594;17.638;2022-08-01T01:14:56;15.93;;;9.00;;
62673;SDS011;62269;47.594;17.638;2022-08-01T01:16:00;10.10;;;7.72;;
62673;SDS011;62269;47.594;17.638;2022-08-01T01:16:50;7.93;;;7.22;;
62673;SDS011;62269;47.594;17.638;2022-08-01T01:17:40;8.43;;;7.53;;
62673;SDS011;62269;47.594;17.638;2022-08-01T01:18:46;7.90;;;7.10;;
62673;SDS011;62269;47.594;17.638;2022-08-01T01:19:44;8.77;;;7.28;;
62673;SDS011;62269;47.594;17.638;2022-08-01T01:20:37;9.23;;;8.32;;
62673;SDS011;62269;47.594;17.638;2022-08-01T01:26:17;8.02;;;7.22;;
62673;SDS011;62269;47.594;17.638;2022-08-01T01:28:50;8.10;;;7.30;;
62673;SDS011;62269;47.594;17.638;2022-08-01T01:29:43;8.15;;;7.35;;
62673;SDS011;62269;47.594;17.638;2022-08-01T01:30:46;8.55;;;7.40;;
62673;SDS011;62269;47.594;17.638;2022-08-01T01:31:49;7.53;;;6.82;;
62673;SDS011;62269;47.594;17.638;2022-08-01T01:32:39;7.95;;;7.15;;
62673;SDS011;62269;47.594;17.638;2022-08-01T01:33:30;8.85;;;7.87;;
62673;SDS011;62269;47.594;17.638;2022-08-01T01:35:20;7.87;;;7.07;;
62673;SDS011;62269;47.594;17.638;2022-08-01T01:36:09;8.13;;;7.10;;
62673;SDS011;62269;47.594;17.638;2022-08-01T01:36:58;8.43;;;7.62;;
62673;SDS011;62269;47.594;17.638;2022-08-01T01:37:45;8.00;;;7.20;;
62673;SDS011;62269;47.594;17.638;2022-08-01T01:38:36;9.77;;;7.82;;
62673;SDS011;62269;47.594;17.638;2022-08-01T01:39:28;8.75;;;7.72;;
62673;SDS011;62269;47.594;17.638;2022-08-01T01:40:16;8.30;;;7.50;;
62673;SDS011;62269;47.594;17.638;2022-08-01T01:41:04;8.00;;;7.20;;
62673;SDS011;62269;47.594;17.638;2022-08-01T01:41:51;8.50;;;7.70;;
62673;SDS011;62269;47.594;17.638;2022-08-01T01:42:40;10.00;;;7.12;;
62673;SDS011;62269;47.594;17.638;2022-08-01T01:43:29;8.70;;;7.85;;
62673;SDS011;62269;47.594;17.638;2022-08-01T01:45:05;8.55;;;7.60;;
62673;SDS011;62269;47.594;17.638;2022-08-01T01:45:53;8.13;;;7.32;;
62673;SDS011;62269;47.594;17.638;2022-08-01T01:46:40;9.43;;;7.80;;
62673;SDS011;62269;47.594;17.638;2022-08-01T01:47:28;9.00;;;8.07;;
62673;SDS011;62269;47.594;17.638;2022-08-01T01:48:17;10.23;;;7.68;;
62673;SDS011;62269;47.594;17.638;2022-08-01T01:49:05;8.80;;;7.50;;
62673;SDS011;62269;47.594;17.638;2022-08-01T01:49:56;9.25;;;7.72;;
62673;SDS011;62269;47.594;17.638;2022-08-01T01:50:45;8.00;;;7.30;;
62673;SDS011;62269;47.594;17.638;2022-08-01T01:51:32;8.25;;;7.40;;
62673;SDS011;62269;47.594;17.638;2022-08-01T01:52:19;8.05;;;7.25;;
62673;SDS011;62269;47.594;17.638;2022-08-01T01:53:07;9.02;;;8.13;;
62673;SDS011;62269;47.594;17.638;2022-08-01T01:54:00;8.65;;;7.85;;
62673;SDS011;62269;47.594;17.638;2022-08-01T01:54:48;8.77;;;7.87;;
62673;SDS011;62269;47.594;17.638;2022-08-01T01:55:37;9.05;;;8.10;;
62673;SDS011;62269;47.594;17.638;2022-08-01T01:56:35;8.40;;;7.60;;
62673;SDS011;62269;47.594;17.638;2022-08-01T01:57:39;8.20;;;7.50;;
62673;SDS011;62269;47.594;17.638;2022-08-01T01:58:27;9.85;;;7.45;;
62673;SDS011;62269;47.594;17.638;2022-08-01T01:59:17;8.43;;;7.62;;
62673;SDS011;62269;47.594;17.638;2022-08-01T02:00:11;8.30;;;7.47;;
62673;SDS011;62269;47.594;17.638;2022-08-01T02:00:59;8.80;;;7.97;;
62673;SDS011;62269;47.594;17.638;2022-08-01T02:01:49;9.07;;;8.20;;
62673;SDS011;62269;47.594;17.638;2022-08-01T02:02:51;11.73;;;7.85;;
62673;SDS011;62269;47.594;17.638;2022-08-01T02:03:39;9.05;;;8.15;;
62673;SDS011;62269;47.594;17.638;2022-08-01T02:04:28;8.60;;;7.53;;
62673;SDS011;62269;47.594;17.638;2022-08-01T02:05:15;9.90;;;7.80;;
62673;SDS011;62269;47.594;17.638;2022-08-01T02:06:02;9.20;;;8.10;;
62673;SDS011;62269;47.594;17.638;2022-08-01T02:06:50;8.98;;;7.95;;
62673;SDS011;62269;47.594;17.638;2022-08-01T02:07:38;9.07;;;8.18;;
62673;SDS011;62269;47.594;17.638;2022-08-01T02:08:25;8.48;;;7.68;;
62673;SDS011;62269;47.594;17.638;2022-08-01T02:09:16;8.73;;;7.93;;
62673;SDS011;62269;47.594;17.638;2022-08-01T02:10:05;8.18;;;7.12;;
62673;SDS011;62269;47.594;17.638;2022-08-01T02:10:53;8.70;;;7.80;;
62673;SDS011;62269;47.594;17.638;2022-08-01T02:11:59;10.13;;;8.02;;
62673;SDS011;62269;47.594;17.638;2022-08-01T02:12:54;8.48;;;7.68;;
62673;SDS011;62269;47.594;17.638;2022-08-01T02:13:40;10.07;;;7.65;;
62673;SDS011;62269;47.594;17.638;2022-08-01T02:14:28;8.60;;;7.80;;
62673;SDS011;62269;47.594;17.638;2022-08-01T02:15:16;9.10;;;8.10;;
62673;SDS011;62269;47.594;17.638;2022-08-01T02:16:04;9.38;;;7.93;;
62673;SDS011;62269;47.594;17.638;2022-08-01T02:16:51;8.18;;;7.35;;
62673;SDS011;62269;47.594;17.638;2022-08-01T02:17:40;9.88;;;8.30;;
62673;SDS011;62269;47.594;17.638;2022-08-01T02:18:28;8.00;;;7.20;;
62673;SDS011;62269;47.594;17.638;2022-08-01T02:19:18;12.70;;;8.52;;
62673;SDS011;62269;47.594;17.638;2022-08-01T02:20:52;8.82;;;8.02;;
62673;SDS011;62269;47.594;17.638;2022-08-01T02:22:04;8.98;;;7.45;;
62673;SDS011;62269;47.594;17.638;2022-08-01T02:23:00;7.87;;;7.18;;
62673;SDS011;62269;47.594;17.638;2022-08-01T02:23:50;9.38;;;7.95;;
62673;SDS011;62269;47.594;17.638;2022-08-01T02:24:43;9.20;;;8.30;;
62673;SDS011;62269;47.594;17.638;2022-08-01T02:25:48;9.57;;;8.07;;
62673;SDS011;62269;47.594;17.638;2022-08-01T02:26:56;8.48;;;7.68;;
62673;SDS011;62269;47.594;17.638;2022-08-01T02:29:39;9.07;;;8.18;;
62673;SDS011;62269;47.594;17.638;2022-08-01T02:30:32;8.93;;;8.00;;
62673;SDS011;62269;47.594;17.638;2022-08-01T02:31:21;10.75;;;8.43;;
62673;SDS011;62269;47.594;17.638;2022-08-01T02:32:13;9.32;;;8.38;;
62673;SDS011;62269;47.594;17.638;2022-08-01T02:33:03;9.60;;;8.65;;
62673;SDS011;62269;47.594;17.638;2022-08-01T02:34:02;8.95;;;8.02;;
62673;SDS011;62269;47.594;17.638;2022-08-01T02:34:52;9.40;;;8.40;;
62673;SDS011;62269;47.594;17.638;2022-08-01T02:35:40;8.77;;;7.90;;
62673;SDS011;62269;47.594;17.638;2022-08-01T02:36:48;8.73;;;7.53;;
62673;SDS011;62269;47.594;17.638;2022-08-01T02:37:36;8.85;;;8.05;;
62673;SDS011;62269;47.594;17.638;2022-08-01T02:38:32;8.90;;;8.02;;
62673;SDS011;62269;47.594;17.638;2022-08-01T02:39:20;9.35;;;8.48;;
62673;SDS011;62269;47.594;17.638;2022-08-01T02:40:08;9.55;;;7.35;;
62673;SDS011;62269;47.594;17.638;2022-08-01T02:41:00;9.00;;;8.20;;
62673;SDS011;62269;47.594;17.638;2022-08-01T02:41:53;8.77;;;7.97;;
62673;SDS011;62269;47.594;17.638;2022-08-01T02:42:43;11.25;;;8.05;;
62673;SDS011;62269;47.594;17.638;2022-08-01T02:43:32;8.30;;;7.60;;
62673;SDS011;62269;47.594;17.638;2022-08-01T02:44:24;8.38;;;7.55;;
62673;SDS011;62269;47.594;17.638;2022-08-01T02:45:17;8.40;;;7.55;;
62673;SDS011;62269;47.594;17.638;2022-08-01T02:46:04;8.85;;;7.82;;
62673;SDS011;62269;47.594;17.638;2022-08-01T02:46:54;9.30;;;8.38;;
62673;SDS011;62269;47.594;17.638;2022-08-01T02:47:43;11.88;;;8.45;;
62673;SDS011;62269;47.594;17.638;2022-08-01T02:48:31;9.70;;;8.25;;
62673;SDS011;62269;47.594;17.638;2022-08-01T02:49:20;9.38;;;8.48;;
62673;SDS011;62269;47.594;17.638;2022-08-01T02:50:09;8.90;;;8.02;;
62673;SDS011;62269;47.594;17.638;2022-08-01T02:50:58;8.55;;;7.72;;
62673;SDS011;62269;47.594;17.638;2022-08-01T02:51:50;10.20;;;7.72;;
62673;SDS011;62269;47.594;17.638;2022-08-01T02:52:38;8.38;;;7.57;;
62673;SDS011;62269;47.594;17.638;2022-08-01T02:53:27;8.32;;;7.53;;
62673;SDS011;62269;47.594;17.638;2022-08-01T02:54:29;9.25;;;8.25;;
62673;SDS011;62269;47.594;17.638;2022-08-01T02:55:17;9.20;;;8.30;;
62673;SDS011;62269;47.594;17.638;2022-08-01T02:56:05;9.48;;;8.57;;
62673;SDS011;62269;47.594;17.638;2022-08-01T02:56:52;9.55;;;8.65;;
62673;SDS011;62269;47.594;17.638;2022-08-01T02:57:40;10.73;;;8.80;;
62673;SDS011;62269;47.594;17.638;2022-08-01T02:58:41;8.95;;;8.07;;
62673;SDS011;62269;47.594;17.638;2022-08-01T02:59:31;14.43;;;8.95;;
62673;SDS011;62269;47.594;17.638;2022-08-01T03:00:19;10.10;;;8.63;;
62673;SDS011;62269;47.594;17.638;2022-08-01T03:01:10;9.23;;;8.32;;
62673;SDS011;62269;47.594;17.638;2022-08-01T03:01:58;9.65;;;8.32;;
62673;SDS011;62269;47.594;17.638;2022-08-01T03:02:48;9.13;;;8.23;;
62673;SDS011;62269;47.594;17.638;2022-08-01T03:03:36;9.02;;;8.13;;
62673;SDS011;62269;47.594;17.638;2022-08-01T03:04:23;10.07;;;7.90;;
62673;SDS011;62269;47.594;17.638;2022-08-01T03:05:14;9.35;;;8.25;;
62673;SDS011;62269;47.594;17.638;2022-08-01T03:06:01;8.90;;;8.00;;
62673;SDS011;62269;47.594;17.638;2022-08-01T03:06:49;9.77;;;8.00;;
62673;SDS011;62269;47.594;17.638;2022-08-01T03:07:38;9.90;;;8.90;;
62673;SDS011;62269;47.594;17.638;2022-08-01T03:08:26;9.98;;;8.05;;
62673;SDS011;62269;47.594;17.638;2022-08-01T03:09:15;9.45;;;8.55;;
62673;SDS011;62269;47.594;17.638;2022-08-01T03:10:03;9.00;;;8.10;;
62673;SDS011;62269;47.594;17.638;2022-08-01T03:10:50;8.60;;;7.80;;
62673;SDS011;62269;47.594;17.638;2022-08-01T03:11:39;11.73;;;8.27;;
62673;SDS011;62269;47.594;17.638;2022-08-01T03:12:29;8.93;;;8.00;;
62673;SDS011;62269;47.594;17.638;2022-08-01T03:13:16;9.00;;;8.10;;
62673;SDS011;62269;47.594;17.638;2022-08-01T03:14:05;8.85;;;7.95;;
62673;SDS011;62269;47.594;17.638;2022-08-01T03:14:54;9.07;;;8.18;;
62673;SDS011;62269;47.594;17.638;2022-08-01T03:15:43;8.65;;;7.85;;
62673;SDS011;62269;47.594;17.638;2022-08-01T03:16:30;10.13;;;8.30;;
62673;SDS011;62269;47.594;17.638;2022-08-01T03:17:18;9.25;;;8.35;;
62673;SDS011;62269;47.594;17.638;2022-08-01T03:18:07;9.77;;;8.27;;
62673;SDS011;62269;47.594;17.638;2022-08-01T03:18:56;9.02;;;8.13;;
62673;SDS011;62269;47.594;17.638;2022-08-01T03:19:43;10.65;;;8.27;;
62673;SDS011;62269;47.594;17.638;2022-08-01T03:20:33;10.02;;;8.07;;
62673;SDS011;62269;47.594;17.638;2022-08-01T03:21:20;8.55;;;7.75;;
62673;SDS011;62269;47.594;17.638;2022-08-01T03:22:09;9.30;;;8.07;;
62673;SDS011;62269;47.594;17.638;2022-08-01T03:22:58;9.13;;;7.60;;
62673;SDS011;62269;47.594;17.638;2022-08-01T03:23:46;10.23;;;8.18;;
62673;SDS011;62269;47.594;17.638;2022-08-01T03:24:40;10.55;;;8.38;;
62673;SDS011;62269;47.594;17.638;2022-08-01T03:25:28;9.35;;;8.45;;
62673;SDS011;62269;47.594;17.638;2022-08-01T03:26:15;10.55;;;8.25;;
62673;SDS011;62269;47.594;17.638;2022-08-01T03:27:03;8.80;;;7.90;;
62673;SDS011;62269;47.594;17.638;2022-08-01T03:27:52;8.57;;;7.68;;
62673;SDS011;62269;47.594;17.638;2022-08-01T03:28:42;9.15;;;8.25;;
62673;SDS011;62269;47.594;17.638;2022-08-01T03:29:30;8.93;;;8.05;;
62673;SDS011;62269;47.594;17.638;2022-08-01T03:30:18;9.00;;;8.18;;
62673;SDS011;62269;47.594;17.638;2022-08-01T03:31:05;9.35;;;8.45;;
62673;SDS011;62269;47.594;17.638;2022-08-01T03:31:52;9.10;;;8.20;;
62673;SDS011;62269;47.594;17.638;2022-08-01T03:32:39;9.00;;;8.20;;
62673;SDS011;62269;47.594;17.638;2022-08-01T03:33:26;9.15;;;8.23;;
62673;SDS011;62269;47.594;17.638;2022-08-01T03:34:13;9.23;;;8.25;;
62673;SDS011;62269;47.594;17.638;2022-08-01T03:35:00;8.63;;;7.82;;
62673;SDS011;62269;47.594;17.638;2022-08-01T03:35:47;8.73;;;7.93;;
62673;SDS011;62269;47.594;17.638;2022-08-01T03:36:39;8.45;;;7.70;;
62673;SDS011;62269;47.594;17.638;2022-08-01T03:37:42;8.63;;;7.82;;
62673;SDS011;62269;47.594;17.638;2022-08-01T03:38:52;9.30;;;8.02;;
62673;SDS011;62269;47.594;17.638;2022-08-01T03:39:44;8.75;;;7.85;;
62673;SDS011;62269;47.594;17.638;2022-08-01T03:41:29;9.18;;;8.27;;
62673;SDS011;62269;47.594;17.638;2022-08-01T03:42:22;8.73;;;7.82;;
62673;SDS011;62269;47.594;17.638;2022-08-01T03:43:14;8.73;;;7.93;;
62673;SDS011;62269;47.594;17.638;2022-08-01T03:44:05;9.07;;;8.18;;
62673;SDS011;62269;47.594;17.638;2022-08-01T03:44:55;8.52;;;7.72;;
62673;SDS011;62269;47.594;17.638;2022-08-01T03:45:49;8.75;;;7.95;;
62673;SDS011;62269;47.594;17.638;2022-08-01T03:46:40;9.13;;;8.23;;
62673;SDS011;62269;47.594;17.638;2022-08-01T03:47:31;9.23;;;8.10;;
62673;SDS011;62269;47.594;17.638;2022-08-01T03:48:27;8.38;;;7.57;;
62673;SDS011;62269;47.594;17.638;2022-08-01T03:49:22;8.70;;;7.82;;
62673;SDS011;62269;47.594;17.638;2022-08-01T03:50:11;10.23;;;8.20;;
62673;SDS011;62269;47.594;17.638;2022-08-01T03:50:59;8.55;;;7.75;;
62673;SDS011;62269;47.594;17.638;2022-08-01T03:51:47;8.32;;;7.50;;
62673;SDS011;62269;47.594;17.638;2022-08-01T03:52:35;8.10;;;7.30;;
62673;SDS011;62269;47.594;17.638;2022-08-01T03:53:25;8.00;;;7.25;;
62673;SDS011;62269;47.594;17.638;2022-08-01T03:55:06;8.05;;;7.28;;
62673;SDS011;62269;47.594;17.638;2022-08-01T03:55:54;8.77;;;7.78;;
62673;SDS011;62269;47.594;17.638;2022-08-01T03:56:42;8.73;;;7.93;;
62673;SDS011;62269;47.594;17.638;2022-08-01T03:57:29;9.07;;;7.85;;
62673;SDS011;62269;47.594;17.638;2022-08-01T03:58:22;9.80;;;7.72;;
62673;SDS011;62269;47.594;17.638;2022-08-01T03:59:09;9.65;;;7.85;;
62673;SDS011;62269;47.594;17.638;2022-08-01T03:59:57;9.07;;;8.20;;
62673;SDS011;62269;47.594;17.638;2022-08-01T04:00:44;8.60;;;7.65;;
62673;SDS011;62269;47.594;17.638;2022-08-01T04:01:31;9.57;;;8.57;;
62673;SDS011;62269;47.594;17.638;2022-08-01T04:02:18;8.63;;;7.80;;
62673;SDS011;62269;47.594;17.638;2022-08-01T04:03:08;7.82;;;7.12;;
62673;SDS011;62269;47.594;17.638;2022-08-01T04:03:55;9.50;;;7.65;;
62673;SDS011;62269;47.594;17.638;2022-08-01T04:04:42;8.20;;;7.40;;
62673;SDS011;62269;47.594;17.638;2022-08-01T04:05:29;7.80;;;7.00;;
62673;SDS011;62269;47.594;17.638;2022-08-01T04:06:16;8.80;;;7.87;;
62673;SDS011;62269;47.594;17.638;2022-08-01T04:07:03;7.55;;;6.85;;
62673;SDS011;62269;47.594;17.638;2022-08-01T04:07:54;8.77;;;7.80;;
62673;SDS011;62269;47.594;17.638;2022-08-01T04:08:42;9.15;;;8.35;;
62673;SDS011;62269;47.594;17.638;2022-08-01T04:09:29;8.65;;;7.75;;
62673;SDS011;62269;47.594;17.638;2022-08-01T04:10:19;9.00;;;8.10;;
62673;SDS011;62269;47.594;17.638;2022-08-01T04:11:07;7.70;;;7.00;;
62673;SDS011;62269;47.594;17.638;2022-08-01T04:11:54;10.52;;;7.40;;
62673;SDS011;62269;47.594;17.638;2022-08-01T04:12:41;9.05;;;8.15;;
62673;SDS011;62269;47.594;17.638;2022-08-01T04:13:29;7.80;;;7.07;;
62673;SDS011;62269;47.594;17.638;2022-08-01T04:14:22;8.05;;;7.25;;
62673;SDS011;62269;47.594;17.638;2022-08-01T04:15:10;9.38;;;7.65;;
62673;SDS011;62269;47.594;17.638;2022-08-01T04:15:56;7.95;;;7.25;;
62673;SDS011;62269;47.594;17.638;2022-08-01T04:16:43;8.25;;;7.40;;
62673;SDS011;62269;47.594;17.638;2022-08-01T04:17:31;8.38;;;7.60;;
62673;SDS011;62269;47.594;17.638;2022-08-01T04:18:18;7.95;;;7.25;;
62673;SDS011;62269;47.594;17.638;2022-08-01T04:19:05;9.57;;;7.87;;
62673;SDS011;62269;47.594;17.638;2022-08-01T04:19:53;7.87;;;7.07;;
62673;SDS011;62269;47.594;17.638;2022-08-01T04:20:40;8.30;;;7.43;;
62673;SDS011;62269;47.594;17.638;2022-08-01T04:21:28;10.02;;;7.30;;
62673;SDS011;62269;47.594;17.638;2022-08-01T04:22:16;7.93;;;7.10;;
62673;SDS011;62269;47.594;17.638;2022-08-01T04:23:03;7.85;;;6.95;;
62673;SDS011;62269;47.594;17.638;2022-08-01T04:23:50;7.93;;;7.22;;
62673;SDS011;62269;47.594;17.638;2022-08-01T04:24:38;8.18;;;7.28;;
62673;SDS011;62269;47.594;17.638;2022-08-01T04:25:28;10.32;;;6.70;;
62673;SDS011;62269;47.594;17.638;2022-08-01T04:26:18;8.05;;;7.20;;
62673;SDS011;62269;47.594;17.638;2022-08-01T04:27:09;7.93;;;7.12;;
62673;SDS011;62269;47.594;17.638;2022-08-01T04:28:00;8.45;;;7.40;;
62673;SDS011;62269;47.594;17.638;2022-08-01T04:28:50;8.00;;;7.20;;
62673;SDS011;62269;47.594;17.638;2022-08-01T04:29:38;8.80;;;7.10;;
62673;SDS011;62269;47.594;17.638;2022-08-01T04:30:27;8.73;;;6.85;;
62673;SDS011;62269;47.594;17.638;2022-08-01T04:31:16;7.68;;;6.87;;
62673;SDS011;62269;47.594;17.638;2022-08-01T04:32:03;9.00;;;7.35;;
62673;SDS011;62269;47.594;17.638;2022-08-01T04:32:54;8.10;;;7.25;;
62673;SDS011;62269;47.594;17.638;2022-08-01T04:33:43;7.62;;;6.82;;
62673;SDS011;62269;47.594;17.638;2022-08-01T04:34:32;8.88;;;6.65;;
62673;SDS011;62269;47.594;17.638;2022-08-01T04:35:20;7.35;;;6.68;;
62673;SDS011;62269;47.594;17.638;2022-08-01T04:36:27;7.20;;;6.50;;
62673;SDS011;62269;47.594;17.638;2022-08-01T04:37:15;7.10;;;6.40;;
62673;SDS011;62269;47.594;17.638;2022-08-01T04:38:05;9.20;;;6.50;;
62673;SDS011;62269;47.594;17.638;2022-08-01T04:38:52;7.68;;;6.53;;
62673;SDS011;62269;47.594;17.638;2022-08-01T04:39:42;9.68;;;6.37;;
62673;SDS011;62269;47.594;17.638;2022-08-01T04:40:36;8.60;;;6.62;;
62673;SDS011;62269;47.594;17.638;2022-08-01T04:41:24;6.78;;;6.07;;
62673;SDS011;62269;47.594;17.638;2022-08-01T04:42:11;6.22;;;5.62;;
62673;SDS011;62269;47.594;17.638;2022-08-01T04:42:58;7.95;;;5.90;;
62673;SDS011;62269;47.594;17.638;2022-08-01T04:43:45;7.70;;;5.95;;
62673;SDS011;62269;47.594;17.638;2022-08-01T04:44:33;6.62;;;6.00;;
62673;SDS011;62269;47.594;17.638;2022-08-01T04:45:20;6.93;;;5.68;;
62673;SDS011;62269;47.594;17.638;2022-08-01T04:46:08;7.70;;;6.20;;
62673;SDS011;62269;47.594;17.638;2022-08-01T04:46:55;7.47;;;6.03;;
62673;SDS011;62269;47.594;17.638;2022-08-01T04:47:42;6.93;;;6.22;;
62673;SDS011;62269;47.594;17.638;2022-08-01T04:48:31;7.62;;;6.35;;
62673;SDS011;62269;47.594;17.638;2022-08-01T04:49:18;6.95;;;6.00;;
62673;SDS011;62269;47.594;17.638;2022-08-01T04:50:05;6.87;;;6.12;;
62673;SDS011;62269;47.594;17.638;2022-08-01T04:50:53;6.05;;;5.50;;
62673;SDS011;62269;47.594;17.638;2022-08-01T04:51:50;7.57;;;6.07;;
62673;SDS011;62269;47.594;17.638;2022-08-01T04:52:50;6.47;;;5.87;;
62673;SDS011;62269;47.594;17.638;2022-08-01T04:53:37;7.93;;;5.97;;
62673;SDS011;62269;47.594;17.638;2022-08-01T04:54:24;8.18;;;5.60;;
62673;SDS011;62269;47.594;17.638;2022-08-01T04:55:16;6.93;;;6.20;;
62673;SDS011;62269;47.594;17.638;2022-08-01T04:56:03;6.20;;;5.60;;
62673;SDS011;62269;47.594;17.638;2022-08-01T04:56:50;6.43;;;5.82;;
62673;SDS011;62269;47.594;17.638;2022-08-01T04:57:40;7.03;;;5.82;;
62673;SDS011;62269;47.594;17.638;2022-08-01T04:58:29;7.25;;;5.70;;
62673;SDS011;62269;47.594;17.638;2022-08-01T04:59:16;8.43;;;5.93;;
62673;SDS011;62269;47.594;17.638;2022-08-01T05:00:22;5.72;;;5.15;;
62673;SDS011;62269;47.594;17.638;2022-08-01T05:01:09;6.22;;;5.62;;
62673;SDS011;62269;47.594;17.638;2022-08-01T05:01:56;6.32;;;5.72;;
62673;SDS011;62269;47.594;17.638;2022-08-01T05:02:43;6.70;;;5.72;;
62673;SDS011;62269;47.594;17.638;2022-08-01T05:03:30;6.30;;;5.70;;
62673;SDS011;62269;47.594;17.638;2022-08-01T05:04:23;7.03;;;5.32;;
62673;SDS011;62269;47.594;17.638;2022-08-01T05:05:10;6.68;;;5.55;;
62673;SDS011;62269;47.594;17.638;2022-08-01T05:05:58;6.00;;;5.40;;
62673;SDS011;62269;47.594;17.638;2022-08-01T05:06:45;6.70;;;5.28;;
62673;SDS011;62269;47.594;17.638;2022-08-01T05:07:32;9.32;;;6.22;;
62673;SDS011;62269;47.594;17.638;2022-08-01T05:08:30;5.97;;;5.35;;
62673;SDS011;62269;47.594;17.638;2022-08-01T05:09:17;7.90;;;5.60;;
62673;SDS011;62269;47.594;17.638;2022-08-01T05:10:04;6.75;;;5.87;;
62673;SDS011;62269;47.594;17.638;2022-08-01T05:10:52;6.05;;;5.45;;
62673;SDS011;62269;47.594;17.638;2022-08-01T05:11:39;8.65;;;5.22;;
62673;SDS011;62269;47.594;17.638;2022-08-01T05:12:26;6.35;;;5.65;;